Time;durP1;ratioP1;P1;durP2;ratioP2;P2;SDS_P1;SDS_P2;PMS_P1;PMS_P2;Temp;Humidity;BMP_temperature;BMP_pressure;BME280_temperature;BME280_humidity;BME280_pressure;Samples;Min_cycle;Max_cycle;Signal;HPM_P1;HPM_P2
2021/09/09 00:00:24;;;;;;;5.87;3.30;;;;;;;16.19;52.17;99651.22;5038498;28;20229;-87
2021/09/09 00:02:53;;;;;;;4.63;3.07;;;;;;;16.11;52.01;99633.56;5039118;28;20241;-88
2021/09/09 00:05:21;;;;;;;4.87;2.80;;;;;;;16.13;51.84;99633.31;5055020;28;20241;-93
2021/09/09 00:07:49;;;;;;;4.50;2.90;;;;;;;16.20;51.88;99629.31;5054501;28;20226;-92
2021/09/09 00:10:17;;;;;;;7.67;3.40;;;;;;;16.31;51.84;99641.06;5054643;28;20240;-92
2021/09/09 00:12:46;;;;;;;3.80;2.93;;;;;;;16.30;51.79;99628.59;5038187;28;20236;-89
2021/09/09 00:15:13;;;;;;;4.40;3.00;;;;;;;16.32;51.43;99639.16;5038336;28;20613;-94
2021/09/09 00:17:41;;;;;;;4.07;3.13;;;;;;;16.32;51.48;99637.28;5054456;28;20229;-87
2021/09/09 00:20:09;;;;;;;6.50;3.00;;;;;;;16.40;51.34;99630.56;5037850;28;20235;-93
2021/09/09 00:22:38;;;;;;;5.27;3.10;;;;;;;16.41;51.56;99621.41;5038319;28;20709;-93
2021/09/09 00:25:07;;;;;;;5.07;3.43;;;;;;;16.46;51.43;99627.66;5038145;28;20230;-91
2021/09/09 00:27:35;;;;;;;5.20;2.83;;;;;;;16.54;50.95;99619.06;5038132;28;20537;-87
2021/09/09 00:30:05;;;;;;;4.30;3.03;;;;;;;16.44;51.25;99631.69;5033812;28;20222;-89
2021/09/09 00:32:33;;;;;;;4.23;3.00;;;;;;;16.49;51.00;99643.38;5018424;28;20585;-93
2021/09/09 00:35:00;;;;;;;4.23;3.40;;;;;;;16.46;51.43;99640.38;5034287;28;20305;-87
2021/09/09 00:37:27;;;;;;;4.03;2.83;;;;;;;16.41;51.52;99632.22;5018267;28;20230;-90
2021/09/09 00:39:54;;;;;;;6.40;2.87;;;;;;;16.39;51.52;99634.34;5034504;28;20292;-88
2021/09/09 00:42:21;;;;;;;5.17;3.07;;;;;;;16.41;51.70;99635.75;5034279;28;20262;-92
2021/09/09 00:44:47;;;;;;;5.90;3.30;;;;;;;16.32;51.79;99631.88;5001693;28;20223;-92
2021/09/09 00:47:14;;;;;;;5.83;3.00;;;;;;;16.25;51.99;99626.66;5017635;28;20697;-91
2021/09/09 00:49:42;;;;;;;6.33;2.73;;;;;;;16.20;52.59;99640.13;5034188;28;20317;-92
2021/09/09 00:52:12;;;;;;;4.00;3.00;;;;;;;16.13;52.76;99636.84;5033658;28;20241;-89
2021/09/09 00:54:41;;;;;;;3.77;3.10;;;;;;;16.02;52.60;99631.56;5050889;28;20226;-93
2021/09/09 00:57:08;;;;;;;5.13;2.97;;;;;;;15.94;53.33;99630.16;5017567;28;20417;-86
2021/09/09 00:59:35;;;;;;;3.67;2.93;;;;;;;15.88;53.39;99627.63;5001552;28;20536;-91
2021/09/09 01:02:04;;;;;;;3.50;2.70;;;;;;;15.82;53.50;99624.06;5033282;28;20314;-85
2021/09/09 01:04:31;;;;;;;4.77;2.87;;;;;;;15.79;53.33;99630.78;5017630;28;20265;-84
2021/09/09 01:06:59;;;;;;;3.60;2.90;;;;;;;15.82;53.42;99632.97;5034195;28;20258;-90
2021/09/09 01:09:26;;;;;;;4.63;3.20;;;;;;;15.79;53.70;99630.78;5033977;28;20309;-93
2021/09/09 01:11:54;;;;;;;4.90;3.00;;;;;;;15.70;53.64;99618.00;5037941;28;20249;-83
2021/09/09 01:14:22;;;;;;;5.73;2.87;;;;;;;15.59;54.29;99617.06;5053180;28;20324;-86
2021/09/09 01:16:49;;;;;;;4.20;3.13;;;;;;;15.63;54.03;99634.38;5037009;28;20324;-89
2021/09/09 01:19:16;;;;;;;6.27;3.33;;;;;;;15.58;54.32;99628.94;5053862;28;20856;-88
2021/09/09 01:21:43;;;;;;;4.57;2.77;;;;;;;15.57;54.50;99637.28;5037282;28;20221;-90
2021/09/09 01:24:18;;;;;;;4.87;3.23;;;;;;;15.47;54.55;99621.75;5053244;28;20230;-89
2021/09/09 01:26:57;;;;;;;3.50;2.80;;;;;;;15.55;54.29;99634.00;5053901;28;20317;-90
2021/09/09 01:29:27;;;;;;;3.57;2.80;;;;;;;15.49;54.23;99635.00;5036834;28;20727;-88
2021/09/09 01:31:55;;;;;;;4.17;3.23;;;;;;;15.43;54.33;99626.03;5037216;28;20225;-89
2021/09/09 01:34:23;;;;;;;3.37;3.03;;;;;;;15.27;54.52;99614.19;5036777;28;20236;-92
2021/09/09 01:36:49;;;;;;;4.63;3.03;;;;;;;15.40;54.46;99632.72;5037011;28;20236;-89
2021/09/09 01:39:16;;;;;;;4.27;2.93;;;;;;;15.35;54.82;99629.16;5020540;28;20320;-88
2021/09/09 01:41:43;;;;;;;5.63;2.97;;;;;;;15.50;54.45;99642.00;5053788;28;20316;-88
2021/09/09 01:44:10;;;;;;;3.50;2.83;;;;;;;15.53;54.21;99618.09;5053165;28;20275;-93
2021/09/09 01:46:37;;;;;;;6.63;2.73;;;;;;;15.60;54.19;99632.19;5020863;28;20327;-82
2021/09/09 01:49:05;;;;;;;5.20;3.30;;;;;;;15.51;54.51;99617.50;5020700;28;20670;-89
2021/09/09 01:51:32;;;;;;;5.07;3.30;;;;;;;15.65;54.01;99624.16;5053268;28;20324;-89
2021/09/09 01:53:58;;;;;;;4.50;3.00;;;;;;;15.70;53.70;99631.50;5020761;28;20239;-82
2021/09/09 01:56:25;;;;;;;5.73;3.13;;;;;;;15.73;53.17;99626.41;5020469;28;20245;-94
2021/09/09 01:58:52;;;;;;;6.13;3.00;;;;;;;15.84;52.91;99627.34;5053323;28;20253;-84
2021/09/09 02:01:19;;;;;;;7.87;2.67;;;;;;;15.93;52.83;99639.31;5036903;28;20579;-89
2021/09/09 02:03:47;;;;;;;5.57;2.73;;;;;;;15.96;52.48;99636.09;5053363;28;20251;-92
2021/09/09 02:06:13;;;;;;;4.63;2.70;;;;;;;15.95;52.40;99625.56;5036555;28;20282;-89
2021/09/09 02:08:41;;;;;;;7.23;2.70;;;;;;;16.00;52.85;99634.53;5020395;28;20225;-89
2021/09/09 02:11:09;;;;;;;4.53;2.57;;;;;;;15.98;52.73;99617.75;5037231;28;20229;-84
2021/09/09 02:13:36;;;;;;;3.27;2.60;;;;;;;16.04;52.72;99632.97;5038874;28;20320;-90
2021/09/09 02:16:04;;;;;;;7.97;2.90;;;;;;;16.08;52.47;99642.19;5056156;28;20536;-84
2021/09/09 02:18:31;;;;;;;5.03;2.83;;;;;;;16.17;52.32;99632.53;5040354;28;20260;-88
2021/09/09 02:20:58;;;;;;;3.97;3.00;;;;;;;15.98;52.52;99609.66;5056859;28;20226;-90
2021/09/09 02:23:25;;;;;;;4.03;2.90;;;;;;;16.05;52.72;99631.06;5023916;28;20253;-84
2021/09/09 02:25:53;;;;;;;3.33;3.03;;;;;;;16.06;52.70;99613.78;5056878;28;20241;-85
2021/09/09 02:28:20;;;;;;;4.40;2.77;;;;;;;16.14;52.27;99616.81;5056269;28;20321;-83
2021/09/09 02:30:47;;;;;;;3.20;2.87;;;;;;;16.05;52.51;99617.56;5023870;28;20324;-85
2021/09/09 02:33:13;;;;;;;3.53;2.60;;;;;;;16.02;52.72;99610.78;5039856;28;20225;-90
2021/09/09 02:35:40;;;;;;;4.97;2.80;;;;;;;16.00;53.33;99612.94;5039937;28;20249;-90
2021/09/09 02:38:07;;;;;;;6.60;2.90;;;;;;;16.04;52.92;99602.41;5039476;28;20546;-89
2021/09/09 02:40:34;;;;;;;4.87;3.03;;;;;;;16.12;53.04;99623.56;5056308;28;20336;-93
2021/09/09 02:43:01;;;;;;;4.17;2.87;;;;;;;16.13;52.99;99615.22;5039857;28;20248;-85
2021/09/09 02:45:28;;;;;;;4.67;2.73;;;;;;;16.06;53.00;99608.38;5039997;28;20222;-93
2021/09/09 02:47:55;;;;;;;6.77;3.00;;;;;;;15.98;53.47;99604.25;5039831;28;20228;-90
2021/09/09 02:50:22;;;;;;;3.17;2.70;;;;;;;15.97;53.19;99604.50;5039600;28;20229;-86
2021/09/09 02:52:49;;;;;;;6.17;2.97;;;;;;;15.92;53.80;99597.16;5056423;28;20316;-93
2021/09/09 02:55:15;;;;;;;3.07;2.77;;;;;;;15.91;53.18;99586.63;5056261;28;20323;-87
2021/09/09 02:57:42;;;;;;;6.57;2.90;;;;;;;16.06;52.97;99601.06;5056303;28;20249;-89
2021/09/09 03:00:10;;;;;;;4.23;2.33;;;;;;;16.01;53.14;99598.31;5039178;28;20228;-88
2021/09/09 03:02:37;;;;;;;4.60;3.07;;;;;;;16.02;53.40;99601.84;5039884;28;20238;-83
2021/09/09 03:05:06;;;;;;;6.43;2.93;;;;;;;15.98;53.15;99601.53;5039495;28;20244;-87
2021/09/09 03:07:32;;;;;;;5.50;2.90;;;;;;;16.07;52.79;99612.69;5021567;28;20287;-92
2021/09/09 03:09:59;;;;;;;4.00;2.90;;;;;;;16.02;53.09;99599.13;5036621;28;20576;-85
2021/09/09 03:12:26;;;;;;;3.77;2.83;;;;;;;16.03;53.00;99589.97;5052185;28;20226;-90
2021/09/09 03:14:53;;;;;;;5.33;3.03;;;;;;;16.02;53.01;99594.56;5035875;28;20228;-89
2021/09/09 03:17:20;;;;;;;4.20;2.83;;;;;;;16.03;53.15;99587.25;5039819;28;20258;-87
2021/09/09 03:19:47;;;;;;;3.20;2.70;;;;;;;15.97;53.21;99583.69;5039354;28;20228;-91
2021/09/09 03:22:14;;;;;;;4.70;3.20;;;;;;;15.98;53.55;99592.63;5038971;28;20624;-87
2021/09/09 03:24:40;;;;;;;5.57;2.97;;;;;;;15.95;53.40;99595.84;5039139;28;20228;-93
2021/09/09 03:27:07;;;;;;;5.60;2.80;;;;;;;15.91;53.43;99590.09;5055799;28;20304;-90
2021/09/09 03:29:34;;;;;;;5.57;2.70;;;;;;;15.98;53.20;99587.22;5039347;28;20256;-94
2021/09/09 03:32:01;;;;;;;4.50;2.90;;;;;;;16.01;52.78;99587.50;5046650;28;20222;-81
2021/09/09 03:34:27;;;;;;;3.10;2.60;;;;;;;15.97;53.26;99593.69;5035667;28;20292;-83
2021/09/09 03:36:54;;;;;;;4.00;2.70;;;;;;;15.97;53.13;99581.00;5019057;28;20232;-86
2021/09/09 03:39:21;;;;;;;5.73;2.80;;;;;;;15.97;53.13;99590.97;5035073;28;20612;-88
2021/09/09 03:41:48;;;;;;;5.60;2.97;;;;;;;15.91;53.10;99583.91;5035621;28;20218;-84
2021/09/09 03:44:14;;;;;;;3.60;2.60;;;;;;;15.93;53.28;99584.47;5035025;28;20324;-91
2021/09/09 03:46:41;;;;;;;5.33;2.97;;;;;;;15.96;52.76;99586.66;5035517;28;20253;-93
2021/09/09 03:49:08;;;;;;;4.90;2.83;;;;;;;15.90;53.18;99590.38;5035113;28;20681;-84
2021/09/09 03:51:35;;;;;;;6.87;2.73;;;;;;;15.85;53.12;99569.53;5035180;28;20232;-89
2021/09/09 03:54:01;;;;;;;6.37;2.77;;;;;;;15.78;53.41;99577.84;5034579;28;20226;-85
2021/09/09 03:56:28;;;;;;;4.83;2.80;;;;;;;15.75;53.26;99574.84;5002762;28;20592;-93
2021/09/09 03:58:55;;;;;;;5.03;2.77;;;;;;;15.77;53.47;99578.09;5002442;28;20318;-87
2021/09/09 04:01:22;;;;;;;6.00;2.80;;;;;;;15.80;53.35;99589.22;5035029;28;20732;-87
2021/09/09 04:03:49;;;;;;;6.47;3.00;;;;;;;15.82;52.89;99584.34;5034763;28;20307;-94
2021/09/09 04:06:16;;;;;;;4.97;2.90;;;;;;;15.91;52.53;99582.00;5035053;28;20635;-86
2021/09/09 04:08:43;;;;;;;6.37;3.03;;;;;;;15.80;52.96;99577.59;5034677;28;20230;-85
2021/09/09 04:11:09;;;;;;;4.33;2.73;;;;;;;15.85;52.14;99578.47;5018372;28;20288;-92
2021/09/09 04:13:37;;;;;;;6.87;3.17;;;;;;;15.77;52.99;99578.91;5018695;28;20613;-86
2021/09/09 04:16:04;;;;;;;3.77;2.90;;;;;;;15.92;52.54;99591.75;5001941;28;20287;-93
2021/09/09 04:18:31;;;;;;;4.17;2.80;;;;;;;15.97;52.24;99585.56;5017920;28;20636;-82
2021/09/09 04:20:58;;;;;;;5.50;3.00;;;;;;;15.95;52.06;99585.03;5034744;28;20230;-88
2021/09/09 04:23:24;;;;;;;6.20;3.20;;;;;;;15.90;52.51;99588.50;5034518;28;20230;-87
2021/09/09 04:25:51;;;;;;;5.07;3.20;;;;;;;15.85;52.54;99583.88;5034383;28;20691;-82
2021/09/09 04:28:18;;;;;;;4.93;2.90;;;;;;;15.89;52.74;99589.56;5017664;28;20700;-89
2021/09/09 04:30:45;;;;;;;4.80;2.73;;;;;;;16.01;52.49;99592.09;5018166;28;20264;-82
2021/09/09 04:33:17;;;;;;;8.37;2.70;;;;;;;16.02;52.60;99585.63;5018682;28;20225;-88
2021/09/09 04:35:43;;;;;;;5.43;2.80;;;;;;;15.94;52.79;99578.00;5033676;28;20219;-88
2021/09/09 04:38:10;;;;;;;5.90;2.77;;;;;;;16.03;52.25;99579.97;5033879;28;20233;-85
2021/09/09 04:40:37;;;;;;;5.00;2.77;;;;;;;16.07;52.08;99581.09;5018274;28;20233;-91
2021/09/09 04:43:04;;;;;;;6.10;3.07;;;;;;;16.02;52.20;99569.41;5034219;28;20565;-82
2021/09/09 04:45:31;;;;;;;4.20;3.07;;;;;;;16.15;52.45;99587.91;5027344;28;20304;-84
2021/09/09 04:48:00;;;;;;;9.30;3.50;;;;;;;16.25;51.89;99585.28;5021294;28;20629;-82
2021/09/09 04:50:27;;;;;;;3.20;2.50;;;;;;;16.26;52.01;99585.06;5037546;28;20232;-91
2021/09/09 04:52:54;;;;;;;5.53;2.83;;;;;;;16.23;52.12;99576.66;5037573;28;20320;-93
2021/09/09 04:55:20;;;;;;;3.70;2.63;;;;;;;16.24;51.89;99570.97;5037190;28;20235;-91
2021/09/09 04:57:47;;;;;;;6.73;3.90;;;;;;;16.32;51.82;99572.41;5053865;28;20324;-91
2021/09/09 05:00:14;;;;;;;7.03;2.90;;;;;;;16.43;51.60;99579.50;5037153;28;20241;-91
2021/09/09 05:02:41;;;;;;;5.33;3.07;;;;;;;16.45;51.25;99573.84;5054010;28;20253;-90
2021/09/09 05:05:08;;;;;;;4.43;2.80;;;;;;;16.53;51.51;99576.88;5037300;28;20233;-81
2021/09/09 05:07:35;;;;;;;6.67;3.20;;;;;;;16.66;51.51;99581.84;5037060;28;20283;-91
2021/09/09 05:10:03;;;;;;;3.67;2.70;;;;;;;16.68;51.33;99574.31;5020471;28;20283;-87
2021/09/09 05:12:31;;;;;;;4.20;3.07;;;;;;;16.76;51.16;99574.88;5037439;28;20247;-92
2021/09/09 05:14:58;;;;;;;6.50;3.00;;;;;;;16.86;51.17;99567.66;5037434;28;20564;-92
2021/09/09 05:17:24;;;;;;;4.57;3.10;;;;;;;16.89;50.91;99561.69;5036599;28;20566;-82
2021/09/09 05:19:51;;;;;;;6.97;2.87;;;;;;;17.05;50.40;99570.72;5053327;28;20233;-92
2021/09/09 05:22:18;;;;;;;5.30;3.13;;;;;;;17.22;50.26;99584.88;5036958;28;20564;-90
2021/09/09 05:24:45;;;;;;;6.93;3.03;;;;;;;17.28;49.96;99572.19;5037075;28;20233;-92
2021/09/09 05:27:11;;;;;;;5.67;2.70;;;;;;;17.47;49.87;99593.13;5037030;28;20727;-89
2021/09/09 05:29:38;;;;;;;5.73;3.07;;;;;;;17.63;49.50;99587.78;5053663;28;20581;-84
2021/09/09 05:32:06;;;;;;;4.17;2.80;;;;;;;17.76;48.80;99590.00;5037003;28;20316;-87
2021/09/09 05:34:33;;;;;;;8.97;3.50;;;;;;;17.88;48.67;99585.94;5053224;28;20500;-82
2021/09/09 05:37:00;;;;;;;7.70;3.10;;;;;;;18.01;48.83;99595.44;5036809;28;20364;-83
2021/09/09 05:39:27;;;;;;;7.90;4.20;;;;;;;18.14;48.45;99596.84;5053525;28;20225;-89
2021/09/09 05:41:53;;;;;;;8.83;3.53;;;;;;;18.15;48.59;99585.72;5021037;28;20260;-82
2021/09/09 05:44:20;;;;;;;6.77;3.47;;;;;;;18.26;48.45;99589.25;5036532;28;20254;-82
2021/09/09 05:46:47;;;;;;;5.43;3.20;;;;;;;18.32;48.47;99580.84;5037843;28;20312;-92
2021/09/09 05:49:14;;;;;;;6.73;3.43;;;;;;;18.46;48.12;99583.84;5024554;28;20280;-82
2021/09/09 05:51:41;;;;;;;7.03;3.07;;;;;;;18.53;47.92;99583.53;5024397;28;20249;-89
2021/09/09 05:54:07;;;;;;;6.77;3.37;;;;;;;18.68;48.02;99584.38;5057148;28;20332;-82
2021/09/09 05:56:34;;;;;;;8.73;3.13;;;;;;;18.77;48.09;99581.91;5040711;28;20221;-91
2021/09/09 05:59:01;;;;;;;7.10;3.30;;;;;;;18.90;48.08;99576.72;5057004;28;20317;-89
2021/09/09 06:01:28;;;;;;;8.33;3.30;;;;;;;19.01;48.47;99579.44;5058278;28;20228;-82
2021/09/09 06:03:57;;;;;;;8.27;3.10;;;;;;;19.15;48.79;99586.72;5057087;28;20241;-85
2021/09/09 06:06:25;;;;;;;6.97;3.17;;;;;;;19.16;47.85;99576.66;5040140;28;20660;-88
2021/09/09 06:08:52;;;;;;;5.17;3.07;;;;;;;19.23;47.43;99583.41;5040366;28;20649;-90
2021/09/09 06:11:19;;;;;;;6.93;3.50;;;;;;;19.36;47.55;99580.09;5057020;28;20295;-83
2021/09/09 06:13:46;;;;;;;6.60;3.50;;;;;;;19.49;47.45;99575.22;5040387;28;20287;-86
2021/09/09 06:16:13;;;;;;;6.83;3.00;;;;;;;19.66;46.59;99581.91;5040049;28;20320;-90
2021/09/09 06:18:40;;;;;;;6.60;3.17;;;;;;;19.80;46.46;99582.09;5039979;28;20312;-85
2021/09/09 06:21:07;;;;;;;9.47;3.30;;;;;;;19.96;46.12;99585.56;5040221;28;20225;-83
2021/09/09 06:23:33;;;;;;;3.83;2.90;;;;;;;20.12;43.95;99577.00;5057723;28;20277;-87
2021/09/09 06:26:16;;;;;;;7.33;2.87;;;;;;;20.34;42.02;99578.50;5042360;28;20218;-89
2021/09/09 06:28:43;;;;;;;5.37;2.60;;;;;;;20.58;41.72;99580.19;5056568;28;20716;-90
2021/09/09 06:31:11;;;;;;;6.00;2.80;;;;;;;20.70;41.22;99576.28;5040247;28;20237;-83
2021/09/09 06:33:38;;;;;;;6.00;2.80;;;;;;;20.86;40.71;99584.00;5040394;28;20580;-88
2021/09/09 06:36:04;;;;;;;6.30;2.90;;;;;;;21.04;40.50;99571.56;5039675;28;20300;-91
2021/09/09 06:38:31;;;;;;;5.00;2.90;;;;;;;21.24;39.49;99573.25;5040022;28;20313;-90
2021/09/09 06:40:58;;;;;;;4.10;2.90;;;;;;;21.39;38.79;99563.00;5040026;28;20305;-89
2021/09/09 06:43:25;;;;;;;4.20;2.87;;;;;;;21.46;38.65;99568.88;5023699;28;20227;-89
2021/09/09 06:45:51;;;;;;;4.87;2.60;;;;;;;21.52;38.74;99562.25;5036414;28;20310;-85
2021/09/09 06:48:18;;;;;;;4.10;2.90;;;;;;;21.71;38.53;99559.56;5038014;28;20254;-88
2021/09/09 06:50:45;;;;;;;5.53;3.00;;;;;;;21.82;39.07;99563.78;5039696;28;20231;-81
2021/09/09 06:53:12;;;;;;;6.33;2.80;;;;;;;22.02;38.29;99570.06;5048379;28;20622;-82
2021/09/09 06:55:39;;;;;;;8.37;2.93;;;;;;;22.07;38.26;99559.88;5056303;28;20290;-88
2021/09/09 06:58:06;;;;;;;3.90;2.60;;;;;;;22.16;38.05;99568.22;5055245;28;20234;-87
2021/09/09 07:00:32;;;;;;;8.30;3.03;;;;;;;22.26;37.48;99560.66;5055738;28;20231;-90
2021/09/09 07:03:00;;;;;;;5.13;2.80;;;;;;;22.38;36.85;99565.66;5038100;28;20244;-83
2021/09/09 07:05:27;;;;;;;6.93;2.90;;;;;;;22.45;36.72;99563.34;5019134;28;20657;-83
2021/09/09 07:07:53;;;;;;;4.77;2.63;;;;;;;22.63;36.59;99575.34;5019395;28;20286;-85
2021/09/09 07:10:21;;;;;;;5.03;2.80;;;;;;;22.68;36.51;99564.28;5019426;28;20315;-89
2021/09/09 07:12:48;;;;;;;4.80;2.90;;;;;;;22.82;36.34;99571.44;5019814;28;20225;-82
2021/09/09 07:15:15;;;;;;;4.70;2.60;;;;;;;22.85;36.19;99569.22;5019324;28;20240;-84
2021/09/09 07:17:41;;;;;;;4.97;2.57;;;;;;;22.90;36.52;99577.34;5018632;28;20231;-87
2021/09/09 07:20:10;;;;;;;6.20;2.53;;;;;;;22.96;35.97;99566.00;5020248;28;20236;-86
2021/09/09 07:22:37;;;;;;;4.57;2.90;;;;;;;23.07;35.81;99574.81;5055607;28;20227;-86
2021/09/09 07:25:05;;;;;;;5.10;2.63;;;;;;;23.22;36.28;99575.34;5022725;28;20578;-85
2021/09/09 07:27:32;;;;;;;5.67;2.87;;;;;;;23.27;35.74;99567.03;5038361;28;20386;-87
2021/09/09 07:29:59;;;;;;;3.13;2.60;;;;;;;23.42;34.90;99565.09;5038968;28;20230;-88
2021/09/09 07:32:26;;;;;;;6.20;2.60;;;;;;;23.50;34.52;99576.16;5038649;28;20232;-89
2021/09/09 07:34:53;;;;;;;3.83;2.67;;;;;;;23.45;34.08;99573.53;5055317;28;20225;-81
2021/09/09 07:37:20;;;;;;;5.47;2.67;;;;;;;23.58;34.51;99574.59;5055318;28;20264;-88
2021/09/09 07:39:47;;;;;;;4.57;2.80;;;;;;;23.58;34.05;99574.59;5036092;28;20324;-87
2021/09/09 07:42:14;;;;;;;6.33;2.80;;;;;;;23.62;34.23;99570.13;5053999;28;20307;-82
2021/09/09 07:44:41;;;;;;;4.33;2.67;;;;;;;23.80;34.30;99577.38;5054624;28;20287;-85
2021/09/09 07:47:08;;;;;;;4.37;3.00;;;;;;;23.77;33.85;99564.34;5021620;28;20320;-81
2021/09/09 07:49:34;;;;;;;5.10;3.13;;;;;;;23.91;34.00;99567.03;5024679;28;20595;-82
2021/09/09 07:52:01;;;;;;;7.85;2.97;;;;;;;23.95;33.65;99571.59;5017628;28;20296;-84
2021/09/09 07:54:28;;;;;;;4.72;2.85;;;;;;;24.01;34.70;99575.00;5021568;28;20257;-84
2021/09/09 07:56:55;;;;;;;4.43;2.72;;;;;;;24.01;33.49;99566.81;5051190;28;20249;-88
2021/09/09 07:59:24;;;;;;;5.57;3.13;;;;;;;24.14;34.03;99580.44;5001807;28;20233;-82
2021/09/09 08:01:51;;;;;;;4.70;2.90;;;;;;;24.10;33.41;99567.69;5018221;28;20230;-88
2021/09/09 08:04:18;;;;;;;7.75;2.90;;;;;;;24.17;33.89;99564.56;5035048;28;20238;-84
2021/09/09 08:06:45;;;;;;;5.72;2.92;;;;;;;24.30;33.96;99566.41;5018337;28;20309;-87
2021/09/09 08:09:13;;;;;;;6.43;2.63;;;;;;;24.33;33.32;99563.06;5017530;28;20226;-82
2021/09/09 08:11:39;;;;;;;3.75;2.70;;;;;;;24.39;32.71;99572.75;5017184;28;20226;-88
2021/09/09 08:14:06;;;;;;;5.05;2.97;;;;;;;24.53;32.38;99577.06;5017309;28;20317;-81
2021/09/09 08:16:34;;;;;;;3.15;2.50;;;;;;;24.47;32.72;99583.78;5034039;28;20247;-81
2021/09/09 08:19:01;;;;;;;3.67;3.15;;;;;;;24.52;32.83;99580.09;5017789;28;20324;-91
2021/09/09 08:21:28;;;;;;;5.78;2.92;;;;;;;24.60;32.59;99582.06;5033671;28;20233;-89
2021/09/09 08:23:55;;;;;;;6.57;3.15;;;;;;;24.62;32.42;99595.47;5018194;28;20327;-82
2021/09/09 08:26:22;;;;;;;6.07;2.80;;;;;;;24.62;32.51;99585.31;5033879;28;20309;-81
2021/09/09 08:28:49;;;;;;;5.15;3.20;;;;;;;24.83;32.90;99580.91;5017462;28;20226;-81
2021/09/09 08:31:16;;;;;;;5.20;3.65;;;;;;;24.86;33.37;99577.59;5034992;28;20265;-86
2021/09/09 08:33:43;;;;;;;4.03;3.00;;;;;;;24.79;33.89;99581.84;5034028;28;20513;-82
2021/09/09 08:36:12;;;;;;;5.25;3.30;;;;;;;24.90;33.25;99573.09;5017017;28;20302;-82
2021/09/09 08:38:39;;;;;;;5.20;3.40;;;;;;;24.97;33.19;99573.44;5041105;28;20228;-82
2021/09/09 08:41:06;;;;;;;5.45;3.33;;;;;;;24.99;33.05;99562.97;5020241;28;20226;-90
2021/09/09 08:43:33;;;;;;;7.28;3.20;;;;;;;25.06;32.27;99570.72;5053058;28;20260;-82
2021/09/09 08:46:01;;;;;;;3.72;3.00;;;;;;;25.20;32.86;99576.09;5037307;28;20233;-85
2021/09/09 08:48:29;;;;;;;6.25;3.40;;;;;;;25.27;31.59;99581.94;5046504;28;20259;-83
2021/09/09 08:50:57;;;;;;;3.25;2.72;;;;;;;25.22;31.74;99574.69;5021363;28;20225;-83
2021/09/09 08:53:24;;;;;;;4.13;2.95;;;;;;;25.32;31.21;99581.81;5053249;28;20213;-90
2021/09/09 08:55:51;;;;;;;3.28;2.75;;;;;;;25.33;30.71;99569.72;5020397;28;20251;-91
2021/09/09 08:58:21;;;;;;;4.63;3.13;;;;;;;25.42;30.79;99565.88;5020024;28;20233;-90
2021/09/09 09:01:09;;;;;;;3.63;2.70;;;;;;;25.51;31.14;99568.63;5053421;28;20324;-88
2021/09/09 09:03:44;;;;;;;3.60;2.85;;;;;;;25.62;29.96;99561.72;5048204;28;20225;-88
2021/09/09 09:06:24;;;;;;;7.40;2.70;;;;;;;25.70;28.42;99568.38;5033495;28;20233;-88
2021/09/09 09:08:53;;;;;;;9.13;3.20;;;;;;;25.72;28.64;99569.66;5045620;28;20229;-84
2021/09/09 09:11:28;;;;;;;4.68;3.15;;;;;;;25.71;28.97;99568.03;5036689;28;20657;-84
2021/09/09 09:13:56;;;;;;;4.00;2.88;;;;;;;25.75;27.48;99573.72;5019562;28;20633;-87
2021/09/09 09:16:24;;;;;;;3.22;2.42;;;;;;;25.71;28.70;99576.25;5035617;28;20587;-82
2021/09/09 09:18:51;;;;;;;3.85;2.83;;;;;;;25.80;29.29;99571.59;5053049;28;20233;-84
2021/09/09 09:21:19;;;;;;;3.75;2.55;;;;;;;25.91;28.96;99577.59;5019565;28;20648;-84
2021/09/09 09:23:54;;;;;;;4.97;3.13;;;;;;;26.08;28.82;99574.84;5036690;28;20247;-83
2021/09/09 09:26:25;;;;;;;4.65;2.88;;;;;;;25.99;29.59;99568.53;5036958;28;20232;-83
2021/09/09 09:28:54;;;;;;;6.95;2.80;;;;;;;26.04;29.15;99560.13;5053095;28;20699;-87
2021/09/09 09:31:23;;;;;;;8.00;2.78;;;;;;;26.18;28.21;99573.69;5052647;28;20292;-89
2021/09/09 09:33:56;;;;;;;4.68;2.67;;;;;;;26.22;27.79;99577.47;5054064;28;20240;-85
2021/09/09 09:36:36;;;;;;;5.68;2.70;;;;;;;26.31;27.92;99574.72;5036808;28;20233;-84
2021/09/09 09:39:17;;;;;;;6.65;2.90;;;;;;;26.26;27.09;99567.44;5023530;28;20239;-88
2021/09/09 09:41:53;;;;;;;5.18;2.90;;;;;;;26.28;27.05;99563.22;5036992;28;20225;-83
2021/09/09 09:44:30;;;;;;;5.55;2.78;;;;;;;26.39;27.46;99562.91;5052956;28;20290;-84
2021/09/09 09:47:18;;;;;;;5.88;3.10;;;;;;;26.38;27.43;99562.09;5052918;28;20573;-87
2021/09/09 09:49:49;;;;;;;4.32;2.70;;;;;;;26.45;27.88;99562.41;5052938;28;20688;-85
2021/09/09 09:52:23;;;;;;;4.57;2.75;;;;;;;26.50;28.38;99561.44;5036127;28;20244;-84
2021/09/09 09:54:51;;;;;;;4.55;2.67;;;;;;;26.43;27.37;99563.84;5036767;28;20238;-85
2021/09/09 09:57:19;;;;;;;4.80;2.95;;;;;;;26.43;27.89;99559.19;5052675;28;20251;-85
2021/09/09 09:59:46;;;;;;;5.60;2.95;;;;;;;26.53;27.24;99563.53;5053025;28;20256;-84
2021/09/09 10:02:13;;;;;;;6.25;2.65;;;;;;;26.50;26.85;99555.94;5052398;28;20314;-88
2021/09/09 10:04:44;;;;;;;4.65;2.50;;;;;;;26.63;26.82;99549.44;5036158;28;20575;-85
2021/09/09 10:07:12;;;;;;;4.55;2.88;;;;;;;26.55;27.24;99553.03;5052815;28;20655;-87
2021/09/09 10:09:40;;;;;;;4.57;2.60;;;;;;;26.67;26.92;99553.16;5036239;28;20670;-83
2021/09/09 10:12:08;;;;;;;4.38;2.65;;;;;;;26.64;26.83;99532.59;5051831;28;20224;-84
2021/09/09 10:14:39;;;;;;;5.13;3.00;;;;;;;26.85;26.63;99553.88;5052917;28;20248;-87
2021/09/09 10:17:07;;;;;;;4.70;2.80;;;;;;;26.90;26.35;99531.75;5035938;28;20236;-84
2021/09/09 10:19:34;;;;;;;4.82;2.90;;;;;;;26.98;27.58;99548.22;5052620;28;20232;-85
2021/09/09 10:22:12;;;;;;;4.68;2.90;;;;;;;27.01;25.61;99538.50;5015721;28;20299;-83
2021/09/09 10:24:43;;;;;;;4.50;2.88;;;;;;;27.10;26.02;99550.28;5033043;28;20252;-86
2021/09/09 10:27:16;;;;;;;5.68;2.55;;;;;;;27.06;26.03;99532.81;5048739;28;20258;-82
2021/09/09 10:30:03;;;;;;;4.43;2.88;;;;;;;27.25;25.72;99543.41;4999105;28;20689;-85
2021/09/09 10:32:33;;;;;;;3.47;2.50;;;;;;;27.24;26.51;99537.09;5031960;28;20237;-87
2021/09/09 10:35:15;;;;;;;5.10;2.50;;;;;;;27.26;26.38;99542.25;5051734;28;20240;-84
2021/09/09 10:37:43;;;;;;;4.90;2.67;;;;;;;27.31;26.71;99533.81;5037016;28;20225;-86
2021/09/09 10:40:31;;;;;;;4.97;2.90;;;;;;;27.43;26.01;99537.47;5019465;28;20229;-84
2021/09/09 10:43:00;;;;;;;3.50;2.72;;;;;;;27.53;25.84;99544.53;5036160;28;20284;-87
2021/09/09 10:45:32;;;;;;;4.05;2.53;;;;;;;27.55;25.88;99529.31;5019497;28;20287;-83
2021/09/09 10:48:04;;;;;;;4.80;2.58;;;;;;;27.51;25.47;99527.56;5042061;28;20230;-83
2021/09/09 10:50:32;;;;;;;4.07;2.80;;;;;;;27.61;25.60;99531.88;5055696;28;20315;-84
2021/09/09 10:53:08;;;;;;;4.15;2.40;;;;;;;27.58;25.00;99528.63;5031437;28;20281;-84
2021/09/09 10:55:37;;;;;;;3.28;2.95;;;;;;;27.61;25.24;99523.63;5019644;28;20321;-84
2021/09/09 10:58:13;;;;;;;2.80;2.42;;;;;;;27.78;25.36;99523.47;5035042;28;20224;-83
2021/09/09 11:01:05;;;;;;;6.28;2.63;;;;;;;27.80;24.43;99529.47;5052973;28;20249;-86
2021/09/09 11:03:36;;;;;;;4.10;2.53;;;;;;;27.90;25.12;99537.34;5055633;28;20237;-86
2021/09/09 11:06:11;;;;;;;5.22;2.60;;;;;;;27.91;25.38;99525.16;5055384;28;20232;-85
2021/09/09 11:08:41;;;;;;;3.58;2.60;;;;;;;27.98;25.39;99526.25;5055660;28;20581;-84
2021/09/09 11:11:19;;;;;;;5.90;2.85;;;;;;;28.00;24.49;99509.38;5039233;28;20257;-87
2021/09/09 11:14:01;;;;;;;3.10;2.40;;;;;;;28.03;24.67;99501.25;5038924;28;20244;-83
2021/09/09 11:16:32;;;;;;;4.35;3.00;;;;;;;28.16;24.24;99521.41;5038565;28;20249;-87
2021/09/09 11:19:00;;;;;;;3.33;2.60;;;;;;;28.26;23.93;99520.19;5038885;28;20276;-85
2021/09/09 11:21:30;;;;;;;3.65;2.58;;;;;;;28.19;23.59;99508.91;5019193;28;20225;-89
2021/09/09 11:23:59;;;;;;;3.67;2.70;;;;;;;28.06;23.50;99498.94;5035413;28;20363;-87
2021/09/09 11:26:26;;;;;;;5.40;2.80;;;;;;;28.30;24.09;99504.59;5052036;28;20290;-83
2021/09/09 11:28:54;;;;;;;9.52;2.60;;;;;;;28.19;23.62;99490.41;5036042;28;20693;-87
2021/09/09 11:31:23;;;;;;;3.85;2.40;;;;;;;28.24;23.48;99505.94;5035402;28;20250;-86
2021/09/09 11:33:58;;;;;;;4.65;2.63;;;;;;;28.32;23.64;99496.78;5035315;28;20309;-84
2021/09/09 11:36:34;;;;;;;6.88;2.85;;;;;;;28.43;23.76;99496.00;5034869;28;20236;-85
2021/09/09 11:39:05;;;;;;;2.60;2.40;;;;;;;28.55;23.52;99486.97;5034667;28;20325;-85